sensor_id;sensor_type;location;lat;lon;timestamp;pressure;altitude;pressure_sealevel;temperature;humidity
25947;BME280;13745;51.470;9.894;2023-09-12T00:02:13;98960.59;;;20.17;82.47
25947;BME280;13745;51.470;9.894;2023-09-12T00:04:59;98966.81;;;20.16;82.61
25947;BME280;13745;51.470;9.894;2023-09-12T00:07:44;98968.59;;;20.15;82.78
25947;BME280;13745;51.470;9.894;2023-09-12T00:10:31;98971.22;;;20.15;82.87
25947;BME280;13745;51.470;9.894;2023-09-12T00:13:16;98966.91;;;20.14;83.02
25947;BME280;13745;51.470;9.894;2023-09-12T00:16:01;98961.63;;;20.14;83.13
25947;BME280;13745;51.470;9.894;2023-09-12T00:18:47;98961.38;;;20.19;83.08
25947;BME280;13745;51.470;9.894;2023-09-12T00:21:32;98950.75;;;20.20;83.08
25947;BME280;13745;51.470;9.894;2023-09-12T00:24:17;98957.88;;;20.18;82.90
25947;BME280;13745;51.470;9.894;2023-09-12T00:27:04;98958.16;;;20.14;83.02
25947;BME280;13745;51.470;9.894;2023-09-12T00:29:50;98962.00;;;20.08;83.06
25947;BME280;13745;51.470;9.894;2023-09-12T00:32:35;98963.13;;;20.04;83.17
25947;BME280;13745;51.470;9.894;2023-09-12T00:35:20;98961.59;;;20.00;83.06
25947;BME280;13745;51.470;9.894;2023-09-12T00:38:05;98954.84;;;19.96;83.17
25947;BME280;13745;51.470;9.894;2023-09-12T00:40:51;98955.78;;;19.95;83.35
25947;BME280;13745;51.470;9.894;2023-09-12T00:43:37;98948.03;;;19.92;83.64
25947;BME280;13745;51.470;9.894;2023-09-12T00:46:23;98947.19;;;19.91;83.62
25947;BME280;13745;51.470;9.894;2023-09-12T00:49:09;98939.41;;;19.90;83.60
25947;BME280;13745;51.470;9.894;2023-09-12T00:51:56;98948.31;;;19.87;83.76
25947;BME280;13745;51.470;9.894;2023-09-12T00:54:43;98944.06;;;19.85;83.66
25947;BME280;13745;51.470;9.894;2023-09-12T00:57:29;98953.00;;;19.82;83.80
25947;BME280;13745;51.470;9.894;2023-09-12T01:00:17;98942.81;;;19.76;83.88
25947;BME280;13745;51.470;9.894;2023-09-12T01:03:02;98940.38;;;19.73;83.88
25947;BME280;13745;51.470;9.894;2023-09-12T01:05:49;98942.34;;;19.70;84.09
25947;BME280;13745;51.470;9.894;2023-09-12T01:08:35;98941.66;;;19.66;84.14
25947;BME280;13745;51.470;9.894;2023-09-12T01:11:22;98941.75;;;19.64;84.34
25947;BME280;13745;51.470;9.894;2023-09-12T01:14:09;98941.16;;;19.59;84.34
25947;BME280;13745;51.470;9.894;2023-09-12T01:16:56;98943.88;;;19.58;84.44
25947;BME280;13745;51.470;9.894;2023-09-12T01:19:41;98934.38;;;19.55;84.43
25947;BME280;13745;51.470;9.894;2023-09-12T01:26:01;98935.56;;;19.50;85.08
25947;BME280;13745;51.470;9.894;2023-09-12T01:28:55;98940.72;;;19.51;84.92
25947;BME280;13745;51.470;9.894;2023-09-12T01:31:44;98943.09;;;19.56;84.88
25947;BME280;13745;51.470;9.894;2023-09-12T01:34:29;98957.97;;;19.57;84.95
25947;BME280;13745;51.470;9.894;2023-09-12T01:37:15;98954.56;;;19.55;85.08
25947;BME280;13745;51.470;9.894;2023-09-12T01:40:01;98950.47;;;19.49;85.19
25947;BME280;13745;51.470;9.894;2023-09-12T01:42:48;98942.69;;;19.48;85.18
25947;BME280;13745;51.470;9.894;2023-09-12T01:45:36;98950.66;;;19.46;85.28
25947;BME280;13745;51.470;9.894;2023-09-12T01:48:25;98952.50;;;19.44;85.22
25947;BME280;13745;51.470;9.894;2023-09-12T01:51:13;98945.84;;;19.39;85.12
25947;BME280;13745;51.470;9.894;2023-09-12T01:54:00;98953.97;;;19.34;85.20
25947;BME280;13745;51.470;9.894;2023-09-12T01:56:45;98949.03;;;19.28;85.15
25947;BME280;13745;51.470;9.894;2023-09-12T01:59:31;98962.47;;;19.23;85.17
25947;BME280;13745;51.470;9.894;2023-09-12T02:02:18;98962.69;;;19.19;85.18
25947;BME280;13745;51.470;9.894;2023-09-12T02:05:09;98966.34;;;19.16;85.55
25947;BME280;13745;51.470;9.894;2023-09-12T02:07:56;98962.28;;;19.11;85.21
25947;BME280;13745;51.470;9.894;2023-09-12T02:10:41;98961.00;;;19.02;85.70
25947;BME280;13745;51.470;9.894;2023-09-12T02:13:26;98952.63;;;18.95;85.78
25947;BME280;13745;51.470;9.894;2023-09-12T02:16:11;98958.97;;;18.91;86.30
25947;BME280;13745;51.470;9.894;2023-09-12T02:18:57;98944.22;;;18.89;86.26
25947;BME280;13745;51.470;9.894;2023-09-12T02:21:43;98960.84;;;18.89;86.58
25947;BME280;13745;51.470;9.894;2023-09-12T02:24:28;98955.50;;;18.91;86.51
25947;BME280;13745;51.470;9.894;2023-09-12T02:27:13;98951.19;;;18.90;86.58
25947;BME280;13745;51.470;9.894;2023-09-12T02:29:58;98953.81;;;18.90;86.68
25947;BME280;13745;51.470;9.894;2023-09-12T02:32:42;98950.34;;;18.89;86.50
25947;BME280;13745;51.470;9.894;2023-09-12T02:35:29;98948.78;;;18.85;86.50
25947;BME280;13745;51.470;9.894;2023-09-12T02:38:14;98954.97;;;18.84;86.47
25947;BME280;13745;51.470;9.894;2023-09-12T02:41:00;98955.91;;;18.83;86.48
25947;BME280;13745;51.470;9.894;2023-09-12T02:43:46;98949.91;;;18.81;86.70
25947;BME280;13745;51.470;9.894;2023-09-12T02:46:31;98945.66;;;18.78;86.91
25947;BME280;13745;51.470;9.894;2023-09-12T02:49:17;98950.03;;;18.78;87.23
25947;BME280;13745;51.470;9.894;2023-09-12T02:52:03;98958.84;;;18.77;87.27
25947;BME280;13745;51.470;9.894;2023-09-12T02:54:49;98965.03;;;18.76;87.06
25947;BME280;13745;51.470;9.894;2023-09-12T02:57:34;98960.72;;;18.75;87.13
25947;BME280;13745;51.470;9.894;2023-09-12T03:00:19;98954.72;;;18.73;87.30
25947;BME280;13745;51.470;9.894;2023-09-12T03:03:05;98957.44;;;18.71;87.48
25947;BME280;13745;51.470;9.894;2023-09-12T03:05:57;98945.22;;;18.70;87.45
25947;BME280;13745;51.470;9.894;2023-09-12T03:08:44;98952.22;;;18.70;87.71
25947;BME280;13745;51.470;9.894;2023-09-12T03:11:29;98952.22;;;18.70;87.57
25947;BME280;13745;51.470;9.894;2023-09-12T03:14:15;98949.69;;;18.68;87.74
25947;BME280;13745;51.470;9.894;2023-09-12T03:17:00;98954.09;;;18.68;87.54
25947;BME280;13745;51.470;9.894;2023-09-12T03:19:46;98961.22;;;18.66;87.70
25947;BME280;13745;51.470;9.894;2023-09-12T03:22:31;98968.31;;;18.64;87.57
25947;BME280;13745;51.470;9.894;2023-09-12T03:25:22;98960.56;;;18.61;87.85
25947;BME280;13745;51.470;9.894;2023-09-12T03:28:08;98959.03;;;18.57;87.91
25947;BME280;13745;51.470;9.894;2023-09-12T03:31:03;98965.31;;;18.54;88.30
25947;BME280;13745;51.470;9.894;2023-09-12T03:33:49;98965.16;;;18.57;88.31
25947;BME280;13745;51.470;9.894;2023-09-12T03:36:35;98966.84;;;18.58;88.28
25947;BME280;13745;51.470;9.894;2023-09-12T03:39:20;98970.41;;;18.57;88.29
25947;BME280;13745;51.470;9.894;2023-09-12T03:42:06;98967.78;;;18.57;88.34
25947;BME280;13745;51.470;9.894;2023-09-12T03:44:51;98967.00;;;18.55;88.46
25947;BME280;13745;51.470;9.894;2023-09-12T03:47:36;98964.47;;;18.53;88.28
25947;BME280;13745;51.470;9.894;2023-09-12T03:50:22;98974.25;;;18.50;88.03
25947;BME280;13745;51.470;9.894;2023-09-12T03:53:08;98982.31;;;18.47;87.98
25947;BME280;13745;51.470;9.894;2023-09-12T03:55:53;98986.09;;;18.41;88.18
25947;BME280;13745;51.470;9.894;2023-09-12T03:58:39;98993.34;;;18.36;88.18
25947;BME280;13745;51.470;9.894;2023-09-12T04:01:25;98989.28;;;18.31;88.00
25947;BME280;13745;51.470;9.894;2023-09-12T04:04:11;98986.97;;;18.24;88.20
25947;BME280;13745;51.470;9.894;2023-09-12T04:06:57;98980.09;;;18.22;88.18
25947;BME280;13745;51.470;9.894;2023-09-12T04:09:42;98985.56;;;18.17;88.17
25947;BME280;13745;51.470;9.894;2023-09-12T04:12:27;98983.25;;;18.11;88.18
25947;BME280;13745;51.470;9.894;2023-09-12T04:15:14;98987.97;;;18.05;88.33
25947;BME280;13745;51.470;9.894;2023-09-12T04:17:59;98981.88;;;18.04;88.83
25947;BME280;13745;51.470;9.894;2023-09-12T04:20:45;98993.28;;;18.03;88.48
25947;BME280;13745;51.470;9.894;2023-09-12T04:23:30;98986.34;;;18.02;88.61
25947;BME280;13745;51.470;9.894;2023-09-12T04:26:16;98986.41;;;18.01;88.73
25947;BME280;13745;51.470;9.894;2023-09-12T04:29:04;98986.50;;;17.99;88.86
25947;BME280;13745;51.470;9.894;2023-09-12T04:31:50;99000.53;;;17.98;88.77
25947;BME280;13745;51.470;9.894;2023-09-12T04:34:42;99004.09;;;17.97;88.41
25947;BME280;13745;51.470;9.894;2023-09-12T04:37:27;98997.22;;;17.94;88.48
25947;BME280;13745;51.470;9.894;2023-09-12T04:40:12;99007.69;;;17.94;88.77
25947;BME280;13745;51.470;9.894;2023-09-12T04:42:57;99011.16;;;17.95;88.74
25947;BME280;13745;51.470;9.894;2023-09-12T04:45:43;99004.16;;;17.95;88.88
25947;BME280;13745;51.470;9.894;2023-09-12T04:48:29;99005.06;;;17.94;89.00
25947;BME280;13745;51.470;9.894;2023-09-12T04:51:15;99019.03;;;17.95;89.18
25947;BME280;13745;51.470;9.894;2023-09-12T04:54:00;99022.50;;;17.95;89.06
25947;BME280;13745;51.470;9.894;2023-09-12T04:56:45;99033.00;;;17.95;89.01
25947;BME280;13745;51.470;9.894;2023-09-12T04:59:30;99034.72;;;17.96;89.23
25947;BME280;13745;51.470;9.894;2023-09-12T05:02:15;99027.75;;;17.95;89.49
25947;BME280;13745;51.470;9.894;2023-09-12T05:05:02;99027.63;;;17.99;89.44
25947;BME280;13745;51.470;9.894;2023-09-12T05:07:47;99037.94;;;18.02;89.64
25947;BME280;13745;51.470;9.894;2023-09-12T05:10:32;99037.03;;;18.03;89.43
25947;BME280;13745;51.470;9.894;2023-09-12T05:13:18;99037.88;;;18.03;89.67
25947;BME280;13745;51.470;9.894;2023-09-12T05:16:03;99033.47;;;18.04;89.70
25947;BME280;13745;51.470;9.894;2023-09-12T05:18:48;99022.75;;;18.08;89.96
25947;BME280;13745;51.470;9.894;2023-09-12T05:21:36;99034.75;;;18.14;90.04
25947;BME280;13745;51.470;9.894;2023-09-12T05:24:21;99042.34;;;18.18;90.18
25947;BME280;13745;51.470;9.894;2023-09-12T05:27:06;99044.69;;;18.24;90.14
25947;BME280;13745;51.470;9.894;2023-09-12T05:29:51;99045.31;;;18.30;90.13
25947;BME280;13745;51.470;9.894;2023-09-12T05:32:36;99049.38;;;18.35;90.32
25947;BME280;13745;51.470;9.894;2023-09-12T05:35:21;99057.81;;;18.42;90.35
25947;BME280;13745;51.470;9.894;2023-09-12T05:38:08;99045.31;;;18.47;90.47
25947;BME280;13745;51.470;9.894;2023-09-12T05:40:54;99052.78;;;18.55;90.49
25947;BME280;13745;51.470;9.894;2023-09-12T05:43:39;99045.50;;;18.60;90.41
25947;BME280;13745;51.470;9.894;2023-09-12T05:46:24;99055.75;;;18.66;90.32
25947;BME280;13745;51.470;9.894;2023-09-12T05:49:09;99073.66;;;18.75;90.36
25947;BME280;13745;51.470;9.894;2023-09-12T05:51:54;99056.66;;;18.82;90.40
25947;BME280;13745;51.470;9.894;2023-09-12T05:54:41;99057.09;;;18.90;90.26
25947;BME280;13745;51.470;9.894;2023-09-12T05:57:26;99061.09;;;18.97;90.16
25947;BME280;13745;51.470;9.894;2023-09-12T06:00:12;99065.09;;;19.04;90.04
25947;BME280;13745;51.470;9.894;2023-09-12T06:03:00;99060.44;;;19.09;89.94
25947;BME280;13745;51.470;9.894;2023-09-12T06:05:45;99046.78;;;19.19;89.74
25947;BME280;13745;51.470;9.894;2023-09-12T06:08:30;99054.19;;;19.28;89.58
25947;BME280;13745;51.470;9.894;2023-09-12T06:11:16;99060.75;;;19.36;89.45
25947;BME280;13745;51.470;9.894;2023-09-12T06:14:02;99065.66;;;19.43;89.30
25947;BME280;13745;51.470;9.894;2023-09-12T06:16:47;99064.28;;;19.51;89.25
25947;BME280;13745;51.470;9.894;2023-09-12T06:19:32;99065.59;;;19.60;89.01
25947;BME280;13745;51.470;9.894;2023-09-12T06:22:17;99061.78;;;19.66;89.23
25947;BME280;13745;51.470;9.894;2023-09-12T06:25:05;99061.13;;;19.78;89.14
25947;BME280;13745;51.470;9.894;2023-09-12T06:27:52;99064.84;;;19.89;89.00
25947;BME280;13745;51.470;9.894;2023-09-12T06:30:37;99056.16;;;20.03;88.95
25947;BME280;13745;51.470;9.894;2023-09-12T06:33:22;99062.41;;;20.16;88.60
25947;BME280;13745;51.470;9.894;2023-09-12T06:36:08;99066.03;;;20.30;88.41
25947;BME280;13745;51.470;9.894;2023-09-12T06:38:52;99052.97;;;20.42;88.52
25947;BME280;13745;51.470;9.894;2023-09-12T06:41:37;99051.34;;;20.56;88.18
25947;BME280;13745;51.470;9.894;2023-09-12T06:44:24;99054.09;;;20.68;88.09
25947;BME280;13745;51.470;9.894;2023-09-12T06:47:09;99048.19;;;20.79;87.97
25947;BME280;13745;51.470;9.894;2023-09-12T06:49:55;99045.66;;;20.92;87.53
25947;BME280;13745;51.470;9.894;2023-09-12T06:52:40;99046.03;;;21.00;87.79
25947;BME280;13745;51.470;9.894;2023-09-12T06:55:25;99052.44;;;21.10;87.79
25947;BME280;13745;51.470;9.894;2023-09-12T06:58:10;99058.38;;;21.14;87.47
25947;BME280;13745;51.470;9.894;2023-09-12T07:01:01;99057.06;;;21.21;87.79
25947;BME280;13745;51.470;9.894;2023-09-12T07:03:46;99053.66;;;21.33;87.53
25947;BME280;13745;51.470;9.894;2023-09-12T07:06:31;99050.56;;;21.41;87.22
25947;BME280;13745;51.470;9.894;2023-09-12T07:09:17;99044.78;;;21.48;86.94
25947;BME280;13745;51.470;9.894;2023-09-12T07:12:03;99033.53;;;21.59;87.21
25947;BME280;13745;51.470;9.894;2023-09-12T07:14:49;99022.72;;;21.64;86.88
25947;BME280;13745;51.470;9.894;2023-09-12T07:17:36;99022.44;;;21.68;86.97
25947;BME280;13745;51.470;9.894;2023-09-12T07:20:22;99016.84;;;21.73;87.22
25947;BME280;13745;51.470;9.894;2023-09-12T07:23:07;99023.50;;;21.78;87.19
25947;BME280;13745;51.470;9.894;2023-09-12T07:25:54;99003.59;;;21.87;86.69
25947;BME280;13745;51.470;9.894;2023-09-12T07:28:39;98978.28;;;21.97;86.84
25947;BME280;13745;51.470;9.894;2023-09-12T07:31:25;98987.13;;;22.10;86.23
25947;BME280;13745;51.470;9.894;2023-09-12T07:34:11;99020.81;;;22.20;85.32
25947;BME280;13745;51.470;9.894;2023-09-12T07:36:58;99026.00;;;22.34;84.91
25947;BME280;13745;51.470;9.894;2023-09-12T07:39:43;99039.13;;;22.48;84.96
25947;BME280;13745;51.470;9.894;2023-09-12T07:42:28;99029.22;;;22.52;84.72
25947;BME280;13745;51.470;9.894;2023-09-12T07:45:13;99027.19;;;22.55;84.67
25947;BME280;13745;51.470;9.894;2023-09-12T07:47:59;99036.53;;;22.61;84.15
25947;BME280;13745;51.470;9.894;2023-09-12T07:50:45;99037.56;;;22.71;83.54
25947;BME280;13745;51.470;9.894;2023-09-12T07:53:30;99044.63;;;22.83;83.34
25947;BME280;13745;51.470;9.894;2023-09-12T07:56:15;99043.00;;;22.95;83.30
25947;BME280;13745;51.470;9.894;2023-09-12T07:59:01;99057.25;;;23.05;82.29
25947;BME280;13745;51.470;9.894;2023-09-12T08:01:46;99060.63;;;23.20;82.20
25947;BME280;13745;51.470;9.894;2023-09-12T08:04:31;99054.88;;;23.39;81.34
25947;BME280;13745;51.470;9.894;2023-09-12T08:07:17;99052.72;;;23.57;80.92
25947;BME280;13745;51.470;9.894;2023-09-12T08:10:03;99050.09;;;23.93;80.56
25947;BME280;13745;51.470;9.894;2023-09-12T08:12:48;99048.94;;;24.32;79.22
25947;BME280;13745;51.470;9.894;2023-09-12T08:15:33;99033.34;;;24.63;78.68
25947;BME280;13745;51.470;9.894;2023-09-12T08:18:18;99035.91;;;24.87;78.09
25947;BME280;13745;51.470;9.894;2023-09-12T08:21:04;99027.88;;;25.11;77.81
25947;BME280;13745;51.470;9.894;2023-09-12T08:23:50;99032.34;;;25.33;77.03
25947;BME280;13745;51.470;9.894;2023-09-12T08:26:36;99022.50;;;25.67;76.40
25947;BME280;13745;51.470;9.894;2023-09-12T08:29:21;99025.88;;;26.12;75.52
25947;BME280;13745;51.470;9.894;2023-09-12T08:32:06;99012.47;;;26.35;75.35
25947;BME280;13745;51.470;9.894;2023-09-12T08:34:51;99017.25;;;26.20;75.20
25947;BME280;13745;51.470;9.894;2023-09-12T08:37:36;99010.69;;;26.03;75.89
25947;BME280;13745;51.470;9.894;2023-09-12T08:40:23;98996.63;;;25.91;75.98
25947;BME280;13745;51.470;9.894;2023-09-12T08:43:08;98997.25;;;25.84;76.05
25947;BME280;13745;51.470;9.894;2023-09-12T08:45:53;99000.88;;;25.83;75.83
25947;BME280;13745;51.470;9.894;2023-09-12T08:48:39;99007.75;;;25.85;75.61
25947;BME280;13745;51.470;9.894;2023-09-12T08:51:25;99016.91;;;25.92;75.27
25947;BME280;13745;51.470;9.894;2023-09-12T08:54:11;99023.13;;;26.02;74.96
25947;BME280;13745;51.470;9.894;2023-09-12T08:56:58;99032.34;;;26.19;74.04
25947;BME280;13745;51.470;9.894;2023-09-12T08:59:44;99039.66;;;26.38;73.54
25947;BME280;13745;51.470;9.894;2023-09-12T09:02:32;99044.09;;;26.38;73.10
25947;BME280;13745;51.470;9.894;2023-09-12T09:05:20;99039.81;;;26.25;73.28
25947;BME280;13745;51.470;9.894;2023-09-12T09:08:06;99047.97;;;26.13;73.33
25947;BME280;13745;51.470;9.894;2023-09-12T09:10:55;99051.38;;;26.03;73.35
25947;BME280;13745;51.470;9.894;2023-09-12T09:13:42;99059.00;;;26.29;72.34
25947;BME280;13745;51.470;9.894;2023-09-12T09:16:27;99051.03;;;25.97;73.14
25947;BME280;13745;51.470;9.894;2023-09-12T09:19:13;99059.41;;;25.92;73.03
25947;BME280;13745;51.470;9.894;2023-09-12T09:22:05;99044.41;;;27.78;69.02
25947;BME280;13745;51.470;9.894;2023-09-12T09:25:09;99043.91;;;27.53;69.12
25947;BME280;13745;51.470;9.894;2023-09-12T09:27:55;99046.13;;;27.08;70.29
25947;BME280;13745;51.470;9.894;2023-09-12T09:30:43;99050.41;;;26.78;71.12
25947;BME280;13745;51.470;9.894;2023-09-12T09:33:34;99044.84;;;26.60;71.72
25947;BME280;13745;51.470;9.894;2023-09-12T09:36:20;99051.94;;;26.50;72.08
25947;BME280;13745;51.470;9.894;2023-09-12T09:39:05;99058.53;;;26.56;72.17
25947;BME280;13745;51.470;9.894;2023-09-12T09:41:51;99059.63;;;26.95;71.52
25947;BME280;13745;51.470;9.894;2023-09-12T09:44:37;99067.84;;;27.43;70.23
25947;BME280;13745;51.470;9.894;2023-09-12T09:47:23;99061.59;;;27.64;69.67
25947;BME280;13745;51.470;9.894;2023-09-12T09:50:13;99059.84;;;28.13;68.86
25947;BME280;13745;51.470;9.894;2023-09-12T09:53:00;99059.97;;;28.98;67.30
25947;BME280;13745;51.470;9.894;2023-09-12T09:55:45;99066.75;;;29.57;66.70
25947;BME280;13745;51.470;9.894;2023-09-12T09:58:31;99071.22;;;29.29;66.25
25947;BME280;13745;51.470;9.894;2023-09-12T10:01:17;99063.50;;;28.70;67.04
25947;BME280;13745;51.470;9.894;2023-09-12T10:04:05;99060.69;;;28.13;68.47
25947;BME280;13745;51.470;9.894;2023-09-12T10:06:50;99056.97;;;27.66;69.39
25947;BME280;13745;51.470;9.894;2023-09-12T10:09:38;99042.16;;;27.33;70.04
25947;BME280;13745;51.470;9.894;2023-09-12T10:12:24;99037.16;;;27.09;70.85
25947;BME280;13745;51.470;9.894;2023-09-12T10:15:12;99047.47;;;27.02;71.56
25947;BME280;13745;51.470;9.894;2023-09-12T10:18:02;99052.00;;;27.42;70.83
25947;BME280;13745;51.470;9.894;2023-09-12T10:20:54;99045.38;;;29.57;66.76
25947;BME280;13745;51.470;9.894;2023-09-12T10:23:43;99039.91;;;31.60;63.22
25947;BME280;13745;51.470;9.894;2023-09-12T10:26:31;99035.78;;;33.83;59.24
25947;BME280;13745;51.470;9.894;2023-09-12T10:29:16;99031.22;;;35.99;55.29
25947;BME280;13745;51.470;9.894;2023-09-12T10:32:02;99029.31;;;37.68;52.36
25947;BME280;13745;51.470;9.894;2023-09-12T10:34:48;99031.06;;;39.08;49.74
25947;BME280;13745;51.470;9.894;2023-09-12T10:37:35;99022.13;;;40.29;47.87
25947;BME280;13745;51.470;9.894;2023-09-12T10:40:22;99026.34;;;41.36;46.23
25947;BME280;13745;51.470;9.894;2023-09-12T10:43:08;99019.25;;;42.37;45.40
25947;BME280;13745;51.470;9.894;2023-09-12T10:45:54;99016.53;;;43.19;44.26
25947;BME280;13745;51.470;9.894;2023-09-12T10:48:40;99027.19;;;43.72;43.08
25947;BME280;13745;51.470;9.894;2023-09-12T10:51:25;99024.69;;;44.28;42.20
25947;BME280;13745;51.470;9.894;2023-09-12T10:54:15;99016.19;;;44.97;40.84
25947;BME280;13745;51.470;9.894;2023-09-12T10:57:04;99017.03;;;45.68;40.25
25947;BME280;13745;51.470;9.894;2023-09-12T11:00:12;99029.88;;;46.16;39.18
25947;BME280;13745;51.470;9.894;2023-09-12T11:02:57;99027.88;;;46.07;39.23
25947;BME280;13745;51.470;9.894;2023-09-12T11:05:51;99024.59;;;46.42;38.23
25947;BME280;13745;51.470;9.894;2023-09-12T11:08:40;99029.47;;;47.09;37.89
25947;BME280;13745;51.470;9.894;2023-09-12T11:11:27;99032.78;;;47.79;36.90
25947;BME280;13745;51.470;9.894;2023-09-12T11:14:13;99022.66;;;48.51;36.25
25947;BME280;13745;51.470;9.894;2023-09-12T11:17:20;99021.31;;;49.43;35.08
25947;BME280;13745;51.470;9.894;2023-09-12T11:20:07;99021.41;;;49.78;34.42
25947;BME280;13745;51.470;9.894;2023-09-12T11:23:09;99024.78;;;48.89;34.59
25947;BME280;13745;51.470;9.894;2023-09-12T11:26:05;99022.06;;;49.54;34.01
25947;BME280;13745;51.470;9.894;2023-09-12T11:28:52;99022.16;;;50.56;32.81
25947;BME280;13745;51.470;9.894;2023-09-12T11:31:39;99031.81;;;51.12;32.25
25947;BME280;13745;51.470;9.894;2023-09-12T11:34:26;99028.56;;;49.19;33.43
25947;BME280;13745;51.470;9.894;2023-09-12T11:37:22;99015.41;;;47.00;35.16
25947;BME280;13745;51.470;9.894;2023-09-12T11:40:19;99019.94;;;44.74;37.26
25947;BME280;13745;51.470;9.894;2023-09-12T11:43:08;99029.03;;;42.91;38.60
25947;BME280;13745;51.470;9.894;2023-09-12T11:45:56;99021.94;;;41.72;40.05
25947;BME280;13745;51.470;9.894;2023-09-12T11:48:42;99024.69;;;40.55;40.73
25947;BME280;13745;51.470;9.894;2023-09-12T11:51:27;99034.19;;;39.12;42.51
25947;BME280;13745;51.470;9.894;2023-09-12T11:54:15;99026.81;;;37.73;43.90
25947;BME280;13745;51.470;9.894;2023-09-12T11:57:01;99020.81;;;36.39;45.82
25947;BME280;13745;51.470;9.894;2023-09-12T11:59:46;99023.63;;;35.37;46.99
25947;BME280;13745;51.470;9.894;2023-09-12T12:02:34;99020.09;;;34.78;48.02
25947;BME280;13745;51.470;9.894;2023-09-12T12:05:19;99019.81;;;34.87;48.05
25947;BME280;13745;51.470;9.894;2023-09-12T12:08:05;99022.25;;;35.12;47.74
25947;BME280;13745;51.470;9.894;2023-09-12T12:10:52;99014.56;;;35.09;47.95
25947;BME280;13745;51.470;9.894;2023-09-12T12:13:38;99016.47;;;35.15;47.67
25947;BME280;13745;51.470;9.894;2023-09-12T12:16:25;99000.31;;;35.15;47.67
25947;BME280;13745;51.470;9.894;2023-09-12T12:19:12;98996.59;;;35.16;47.89
25947;BME280;13745;51.470;9.894;2023-09-12T12:21:58;99004.03;;;35.14;47.73
25947;BME280;13745;51.470;9.894;2023-09-12T12:24:45;98999.22;;;35.09;48.40
25947;BME280;13745;51.470;9.894;2023-09-12T12:27:31;99008.50;;;35.07;48.32
25947;BME280;13745;51.470;9.894;2023-09-12T12:30:18;98998.09;;;35.04;48.21
25947;BME280;13745;51.470;9.894;2023-09-12T12:33:07;98998.19;;;34.96;48.73
25947;BME280;13745;51.470;9.894;2023-09-12T12:36:00;99000.28;;;34.71;48.62
25947;BME280;13745;51.470;9.894;2023-09-12T12:38:46;98995.88;;;34.40;48.95
25947;BME280;13745;51.470;9.894;2023-09-12T12:41:32;98989.59;;;34.25;49.65
25947;BME280;13745;51.470;9.894;2023-09-12T12:44:20;98987.56;;;34.27;49.09
25947;BME280;13745;51.470;9.894;2023-09-12T12:47:06;98978.53;;;34.20;49.84
25947;BME280;13745;51.470;9.894;2023-09-12T12:49:52;98966.59;;;33.99;49.46
25947;BME280;13745;51.470;9.894;2023-09-12T12:52:38;98962.69;;;33.79;49.44
25947;BME280;13745;51.470;9.894;2023-09-12T12:55:26;98965.50;;;33.63;50.39
25947;BME280;13745;51.470;9.894;2023-09-12T12:58:11;98963.22;;;33.51;50.14
25947;BME280;13745;51.470;9.894;2023-09-12T13:00:56;98964.09;;;33.44;50.73
25947;BME280;13745;51.470;9.894;2023-09-12T13:03:42;98955.59;;;33.24;50.11
25947;BME280;13745;51.470;9.894;2023-09-12T13:06:27;98966.06;;;33.19;50.31
25947;BME280;13745;51.470;9.894;2023-09-12T13:09:15;98944.22;;;33.14;50.99
25947;BME280;13745;51.470;9.894;2023-09-12T13:12:00;98950.66;;;33.05;50.79
25947;BME280;13745;51.470;9.894;2023-09-12T13:14:46;98952.72;;;32.94;51.18
25947;BME280;13745;51.470;9.894;2023-09-12T13:17:31;98938.81;;;32.75;51.78
25947;BME280;13745;51.470;9.894;2023-09-12T13:20:16;98932.81;;;32.64;51.73
25947;BME280;13745;51.470;9.894;2023-09-12T13:23:01;98928.47;;;32.55;51.90
25947;BME280;13745;51.470;9.894;2023-09-12T13:25:47;98925.28;;;32.52;52.64
25947;BME280;13745;51.470;9.894;2023-09-12T13:28:32;98915.91;;;32.48;52.72
25947;BME280;13745;51.470;9.894;2023-09-12T13:31:18;98920.81;;;32.44;53.03
25947;BME280;13745;51.470;9.894;2023-09-12T13:34:03;98918.28;;;32.42;53.11
25947;BME280;13745;51.470;9.894;2023-09-12T13:36:48;98913.59;;;32.28;53.21
25947;BME280;13745;51.470;9.894;2023-09-12T13:39:33;98907.72;;;32.25;53.53
25947;BME280;13745;51.470;9.894;2023-09-12T13:42:19;98907.88;;;32.23;53.52
25947;BME280;13745;51.470;9.894;2023-09-12T13:45:06;98905.22;;;32.15;53.33
25947;BME280;13745;51.470;9.894;2023-09-12T13:47:52;98903.72;;;32.37;52.69
25947;BME280;13745;51.470;9.894;2023-09-12T13:50:37;98900.91;;;32.78;51.81
25947;BME280;13745;51.470;9.894;2023-09-12T13:53:22;98914.63;;;32.83;52.50
25947;BME280;13745;51.470;9.894;2023-09-12T13:56:07;98907.75;;;32.88;51.97
25947;BME280;13745;51.470;9.894;2023-09-12T13:58:53;98908.59;;;32.81;52.23
25947;BME280;13745;51.470;9.894;2023-09-12T14:01:39;98910.47;;;32.72;52.97
25947;BME280;13745;51.470;9.894;2023-09-12T14:04:24;98907.13;;;32.70;52.42
25947;BME280;13745;51.470;9.894;2023-09-12T14:07:09;98904.81;;;32.59;53.56
25947;BME280;13745;51.470;9.894;2023-09-12T14:09:54;98904.00;;;32.50;53.03
25947;BME280;13745;51.470;9.894;2023-09-12T14:12:41;98901.69;;;32.31;53.49
25947;BME280;13745;51.470;9.894;2023-09-12T14:15:27;98906.22;;;32.22;54.17
25947;BME280;13745;51.470;9.894;2023-09-12T14:18:13;98899.69;;;32.08;54.52
25947;BME280;13745;51.470;9.894;2023-09-12T14:20:58;98893.84;;;31.97;54.24
25947;BME280;13745;51.470;9.894;2023-09-12T14:23:43;98899.03;;;31.82;54.83
25947;BME280;13745;51.470;9.894;2023-09-12T14:26:28;98905.38;;;31.73;54.47
25947;BME280;13745;51.470;9.894;2023-09-12T14:29:13;98895.50;;;31.65;55.15
25947;BME280;13745;51.470;9.894;2023-09-12T14:32:00;98894.13;;;31.61;54.78
25947;BME280;13745;51.470;9.894;2023-09-12T14:34:45;98907.22;;;31.48;54.98
25947;BME280;13745;51.470;9.894;2023-09-12T14:37:30;98898.31;;;31.39;55.32
25947;BME280;13745;51.470;9.894;2023-09-12T14:40:16;98894.28;;;31.35;54.84
25947;BME280;13745;51.470;9.894;2023-09-12T14:43:00;98884.38;;;31.27;55.48
25947;BME280;13745;51.470;9.894;2023-09-12T14:45:46;98891.19;;;31.14;55.92